createdAt,value
2023-05-13T00:00:06.728Z,14.70
2023-05-13T00:02:11.894Z,14.71
2023-05-13T00:04:19.971Z,14.73
2023-05-13T00:06:27.629Z,14.71
2023-05-13T00:08:33.104Z,14.69
2023-05-13T00:10:39.160Z,14.73
2023-05-13T00:12:44.196Z,14.70
2023-05-13T00:14:49.180Z,14.68
2023-05-13T00:16:54.097Z,14.72
2023-05-13T00:19:01.786Z,14.70
2023-05-13T00:21:07.098Z,14.76
2023-05-13T00:23:14.810Z,14.79
2023-05-13T00:25:21.838Z,14.83
2023-05-13T00:27:26.757Z,14.77
2023-05-13T00:29:31.700Z,14.84
2023-05-13T00:31:36.900Z,14.83
2023-05-13T00:33:41.822Z,14.84
2023-05-13T00:35:46.808Z,14.83
2023-05-13T00:37:52.353Z,14.85
2023-05-13T00:40:00.609Z,14.80
2023-05-13T00:42:06.512Z,14.89
2023-05-13T00:44:13.890Z,14.92
2023-05-13T00:46:19.727Z,14.87
2023-05-13T00:48:26.952Z,14.90
2023-05-13T00:50:32.068Z,14.87
2023-05-13T00:52:37.845Z,14.83
2023-05-13T00:54:42.734Z,14.87
2023-05-13T00:56:54.940Z,14.82
2023-05-13T00:59:00.000Z,14.77
2023-05-13T01:01:14.790Z,14.78
2023-05-13T01:03:27.916Z,14.84
2023-05-13T01:05:41.670Z,14.86
2023-05-13T01:07:53.587Z,14.84
2023-05-13T01:10:05.324Z,14.83
2023-05-13T01:12:20.649Z,14.79
2023-05-13T01:14:35.386Z,14.67
2023-05-13T01:16:46.657Z,14.64
2023-05-13T01:18:56.183Z,14.63
2023-05-13T01:21:04.145Z,14.58
2023-05-13T01:23:11.815Z,14.54
2023-05-13T01:25:16.755Z,14.57
2023-05-13T01:27:23.810Z,14.63
2023-05-13T01:29:31.509Z,14.52
2023-05-13T01:31:37.010Z,14.52
2023-05-13T01:33:43.672Z,14.40
2023-05-13T01:35:50.102Z,14.42
2023-05-13T01:37:56.055Z,14.41
2023-05-13T01:40:14.288Z,14.35
2023-05-13T01:42:26.556Z,14.31
2023-05-13T01:44:31.651Z,14.26
2023-05-13T01:46:36.680Z,14.15
2023-05-13T01:48:41.696Z,14.10
2023-05-13T01:50:46.896Z,14.05
2023-05-13T01:52:51.747Z,14.04
2023-05-13T01:54:56.967Z,13.84
2023-05-13T01:57:04.616Z,13.82
2023-05-13T01:59:09.483Z,13.78
2023-05-13T02:01:14.517Z,13.63
2023-05-13T02:03:19.636Z,13.51
2023-05-13T02:05:25.238Z,13.44
2023-05-13T02:07:30.279Z,13.40
2023-05-13T02:09:35.196Z,13.34
2023-05-13T02:11:40.068Z,13.27
2023-05-13T02:13:48.586Z,13.26
2023-05-13T02:15:53.711Z,13.21
2023-05-13T02:17:58.970Z,12.99
2023-05-13T02:20:04.689Z,12.94
2023-05-13T02:22:09.676Z,12.84
2023-05-13T02:24:14.671Z,12.88
2023-05-13T02:26:19.552Z,12.77
2023-05-13T02:28:26.736Z,12.76
2023-05-13T02:30:34.671Z,12.70
2023-05-13T02:32:42.995Z,12.65
2023-05-13T02:34:47.975Z,12.64
2023-05-13T02:36:52.924Z,12.66
2023-05-13T02:38:57.768Z,12.52
2023-05-13T02:41:03.184Z,12.44
2023-05-13T02:43:08.244Z,12.38
2023-05-13T02:45:14.271Z,12.30
2023-05-13T02:47:23.018Z,12.30
2023-05-13T02:49:27.878Z,12.32
2023-05-13T02:51:35.661Z,12.31
2023-05-13T02:53:42.766Z,12.26
2023-05-13T02:55:50.284Z,12.24
2023-05-13T02:57:57.131Z,12.21
2023-05-13T03:00:02.432Z,12.24
2023-05-13T03:02:07.637Z,12.29
2023-05-13T03:04:15.324Z,12.27
2023-05-13T03:06:20.314Z,12.28
2023-05-13T03:08:25.464Z,12.26
2023-05-13T03:10:31.305Z,12.25
2023-05-13T03:12:36.705Z,12.17
2023-05-13T03:14:43.163Z,12.15
2023-05-13T03:16:48.571Z,12.15
2023-05-13T03:18:53.501Z,12.15
2023-05-13T03:21:01.616Z,12.15
2023-05-13T03:23:06.928Z,12.13
2023-05-13T03:25:12.143Z,12.16
2023-05-13T03:27:17.695Z,12.15
2023-05-13T03:29:23.006Z,12.15
2023-05-13T03:31:32.420Z,12.11
2023-05-13T03:33:38.036Z,12.08
2023-05-13T03:35:42.999Z,12.13
2023-05-13T03:37:51.268Z,12.12
2023-05-13T03:39:56.443Z,12.03
2023-05-13T03:42:01.766Z,11.96
2023-05-13T03:44:06.818Z,11.95
2023-05-13T03:46:11.811Z,11.90
2023-05-13T03:48:16.777Z,11.84
2023-05-13T03:50:24.220Z,11.92
2023-05-13T03:52:33.475Z,11.91
2023-05-13T03:54:41.309Z,11.90
2023-05-13T03:56:46.458Z,11.92
2023-05-13T03:58:51.788Z,11.89
2023-05-13T04:00:57.016Z,11.79
2023-05-13T04:03:02.059Z,11.78
2023-05-13T04:05:09.839Z,11.73
2023-05-13T04:07:14.707Z,11.69
2023-05-13T04:09:19.704Z,11.62
2023-05-13T04:11:27.189Z,11.62
2023-05-13T04:13:32.187Z,11.65
2023-05-13T04:15:37.607Z,11.63
2023-05-13T04:17:42.592Z,11.59
2023-05-13T04:19:47.553Z,11.60
2023-05-13T04:21:52.417Z,11.57
2023-05-13T04:23:57.444Z,11.60
2023-05-13T04:26:02.425Z,11.61
2023-05-13T04:28:10.217Z,11.61
2023-05-13T04:30:15.399Z,11.50
2023-05-13T04:32:22.243Z,11.52
2023-05-13T04:34:27.317Z,11.55
2023-05-13T04:36:32.504Z,11.53
2023-05-13T04:38:38.708Z,11.50
2023-05-13T04:40:43.638Z,11.45
2023-05-13T04:42:55.253Z,11.51
2023-05-13T04:45:03.125Z,11.53
2023-05-13T04:47:08.622Z,11.57
2023-05-13T04:49:13.490Z,11.74
2023-05-13T04:51:19.284Z,11.71
2023-05-13T04:53:25.843Z,11.67
2023-05-13T04:55:31.568Z,11.70
2023-05-13T04:57:39.475Z,11.74
2023-05-13T04:59:44.369Z,11.81
2023-05-13T05:01:55.171Z,11.84
2023-05-13T05:04:02.013Z,11.96
2023-05-13T05:06:07.076Z,12.11
2023-05-13T05:08:11.894Z,12.21
2023-05-13T05:10:19.816Z,12.45
2023-05-13T05:12:25.240Z,12.61
2023-05-13T05:14:30.269Z,12.72
2023-05-13T05:16:35.304Z,12.85
2023-05-13T05:18:43.854Z,12.97
2023-05-13T05:20:49.073Z,13.02
2023-05-13T05:22:55.632Z,13.16
2023-05-13T05:25:00.530Z,13.28
2023-05-13T05:27:05.457Z,13.42
2023-05-13T05:29:10.464Z,13.62
2023-05-13T05:31:15.624Z,13.84
2023-05-13T05:33:26.322Z,13.99
2023-05-13T05:35:37.337Z,13.93
2023-05-13T05:37:42.288Z,14.11
2023-05-13T05:39:47.231Z,14.28
2023-05-13T05:41:52.323Z,14.40
2023-05-13T05:43:57.285Z,14.48
2023-05-13T05:46:02.128Z,14.40
2023-05-13T05:48:07.755Z,14.61
2023-05-13T05:50:13.406Z,14.73
2023-05-13T05:52:25.839Z,15.06
2023-05-13T05:54:31.898Z,15.28
2023-05-13T05:56:37.220Z,15.48
2023-05-13T05:58:42.229Z,15.45
2023-05-13T06:00:47.589Z,15.56
2023-05-13T06:02:52.605Z,15.55
2023-05-13T06:04:57.540Z,15.77
2023-05-13T06:07:02.576Z,15.88
2023-05-13T06:09:10.268Z,16.24
2023-05-13T06:11:15.118Z,16.15
2023-05-13T06:13:20.062Z,16.14
2023-05-13T06:15:25.260Z,16.44
2023-05-13T06:17:31.145Z,16.45
2023-05-13T06:19:36.388Z,16.64
2023-05-13T06:21:43.310Z,16.72
2023-05-13T06:23:48.407Z,16.71
2023-05-13T06:25:59.057Z,16.67
2023-05-13T06:28:04.277Z,16.52
2023-05-13T06:30:11.019Z,16.80
2023-05-13T06:32:16.149Z,16.88
2023-05-13T06:34:23.857Z,16.93
2023-05-13T06:36:32.571Z,16.95
2023-05-13T06:38:38.234Z,17.00
2023-05-13T06:40:43.530Z,17.18
2023-05-13T06:42:51.505Z,17.61
2023-05-13T06:44:56.496Z,17.57
2023-05-13T06:47:03.119Z,17.48
2023-05-13T06:49:08.437Z,17.55
2023-05-13T06:51:13.825Z,17.58
2023-05-13T06:53:18.863Z,17.84
2023-05-13T06:55:23.683Z,17.84
2023-05-13T06:57:41.780Z,17.96
2023-05-13T06:59:50.507Z,18.08
2023-05-13T07:01:55.493Z,18.10
2023-05-13T07:04:01.394Z,18.54
2023-05-13T07:06:06.260Z,18.21
2023-05-13T07:08:11.351Z,18.69
2023-05-13T07:10:16.334Z,18.64
2023-05-13T07:12:24.988Z,18.64
2023-05-13T07:14:30.080Z,18.59
2023-05-13T07:16:40.357Z,18.66
2023-05-13T07:18:45.637Z,19.00
2023-05-13T07:20:50.544Z,19.13
2023-05-13T07:22:55.792Z,18.74
2023-05-13T07:25:00.722Z,19.15
2023-05-13T07:27:06.750Z,19.66
2023-05-13T07:29:11.800Z,19.42
2023-05-13T07:31:18.645Z,19.51
2023-05-13T07:33:28.701Z,19.63
2023-05-13T07:35:34.219Z,19.91
2023-05-13T07:37:40.038Z,19.91
2023-05-13T07:39:45.090Z,20.14
2023-05-13T07:41:50.362Z,19.91
2023-05-13T07:43:55.175Z,19.60
2023-05-13T07:46:00.004Z,19.81
2023-05-13T07:48:05.893Z,20.13
2023-05-13T07:50:13.858Z,20.17
2023-05-13T07:52:19.460Z,20.32
2023-05-13T07:54:26.619Z,20.49
2023-05-13T07:56:32.377Z,20.39
2023-05-13T07:58:40.046Z,20.39
2023-05-13T08:00:45.016Z,20.11
2023-05-13T08:02:50.023Z,20.26
2023-05-13T08:04:55.069Z,20.44
2023-05-13T08:07:04.365Z,20.74
2023-05-13T08:09:12.388Z,21.11
2023-05-13T08:11:17.558Z,21.00
2023-05-13T08:13:22.429Z,21.01
2023-05-13T08:15:27.419Z,21.27
2023-05-13T08:17:32.894Z,21.42
2023-05-13T08:19:38.914Z,21.12
2023-05-13T08:21:44.010Z,21.24
2023-05-13T08:23:53.126Z,21.58
2023-05-13T08:25:58.779Z,21.65
2023-05-13T08:28:05.146Z,20.99
2023-05-13T08:30:11.591Z,21.41
2023-05-13T08:32:16.522Z,21.61
2023-05-13T08:34:26.657Z,21.86
2023-05-13T08:36:31.548Z,21.85
2023-05-13T08:38:38.066Z,21.91
2023-05-13T08:40:45.977Z,22.18
2023-05-13T08:42:53.723Z,22.29
2023-05-13T08:44:59.094Z,22.04
2023-05-13T08:47:12.547Z,21.74
2023-05-13T08:49:17.656Z,21.69
2023-05-13T08:51:22.612Z,21.84
2023-05-13T08:53:35.214Z,22.20
2023-05-13T08:55:41.964Z,22.26
2023-05-13T08:57:49.489Z,22.52
2023-05-13T08:59:54.394Z,22.58
2023-05-13T09:02:03.631Z,22.48
2023-05-13T09:04:11.973Z,22.53
2023-05-13T09:06:17.420Z,22.77
2023-05-13T09:08:22.199Z,22.19
2023-05-13T09:10:27.247Z,22.08
2023-05-13T09:12:52.956Z,22.19
2023-05-13T09:14:57.949Z,22.11
2023-05-13T09:17:05.008Z,22.93
2023-05-13T09:19:11.633Z,23.00
2023-05-13T09:21:27.010Z,22.63
2023-05-13T09:23:32.881Z,21.97
2023-05-13T09:25:40.003Z,21.91
2023-05-13T09:27:49.238Z,22.37
2023-05-13T09:30:05.166Z,22.63
2023-05-13T09:32:13.011Z,22.77
2023-05-13T09:34:18.195Z,22.71
2023-05-13T09:36:23.342Z,22.64
2023-05-13T09:38:35.779Z,22.99
2023-05-13T09:40:42.715Z,22.91
2023-05-13T09:42:49.736Z,23.25
2023-05-13T09:44:54.883Z,23.13
2023-05-13T09:47:02.771Z,22.76
2023-05-13T09:49:08.404Z,23.10
2023-05-13T09:51:13.454Z,23.43
2023-05-13T09:53:18.641Z,23.35
2023-05-13T09:55:25.998Z,23.77
2023-05-13T09:57:31.472Z,23.96
2023-05-13T09:59:39.780Z,23.98
2023-05-13T10:01:45.695Z,23.62
2023-05-13T10:03:53.374Z,23.77
2023-05-13T10:06:02.246Z,23.46
2023-05-13T10:08:11.194Z,23.91
2023-05-13T10:10:16.505Z,23.89
2023-05-13T10:12:23.794Z,23.97
2023-05-13T10:14:32.111Z,23.93
2023-05-13T10:16:37.625Z,23.91
2023-05-13T10:18:43.031Z,23.88
2023-05-13T10:20:55.595Z,23.73
2023-05-13T10:23:01.046Z,23.93
2023-05-13T10:25:08.164Z,23.60
2023-05-13T10:27:15.201Z,23.80
2023-05-13T10:29:21.356Z,23.93
2023-05-13T10:31:27.222Z,23.63
2023-05-13T10:33:34.388Z,23.94
2023-05-13T10:35:42.928Z,24.15
2023-05-13T10:38:10.878Z,24.63
2023-05-13T10:40:52.015Z,24.38
2023-05-13T10:43:13.392Z,24.31
2023-05-13T10:45:20.005Z,24.48
2023-05-13T10:47:25.138Z,24.57
2023-05-13T10:49:36.914Z,24.60
2023-05-13T10:51:49.486Z,25.09
2023-05-13T10:53:59.272Z,24.60
2023-05-13T10:56:08.113Z,24.37
2023-05-13T10:58:15.057Z,24.56
2023-05-13T11:00:21.675Z,24.58
2023-05-13T11:02:27.228Z,24.13
2023-05-13T11:04:35.088Z,24.46
2023-05-13T11:06:41.547Z,25.03
2023-05-13T11:08:48.403Z,25.04
2023-05-13T11:11:01.157Z,24.90
2023-05-13T11:13:25.086Z,24.84
2023-05-13T11:15:46.786Z,24.70
2023-05-13T11:17:58.477Z,24.62
2023-05-13T11:20:03.640Z,24.67
2023-05-13T11:22:12.674Z,24.84
2023-05-13T11:24:24.734Z,24.64
2023-05-13T11:26:49.653Z,24.16
2023-05-13T11:29:03.566Z,24.41
2023-05-13T11:31:20.334Z,24.35
2023-05-13T11:33:28.491Z,24.71
2023-05-13T11:35:34.851Z,24.58
2023-05-13T11:37:45.837Z,25.20
2023-05-13T11:39:50.982Z,25.33
2023-05-13T11:42:01.895Z,25.31
2023-05-13T11:44:08.627Z,25.73
2023-05-13T11:46:14.684Z,25.70
2023-05-13T11:48:23.971Z,25.71
2023-05-13T11:50:32.542Z,25.46
2023-05-13T11:52:37.745Z,25.19
2023-05-13T11:54:51.489Z,25.74
2023-05-13T11:57:01.094Z,24.50
2023-05-13T11:59:18.472Z,23.73
2023-05-13T12:01:28.460Z,24.82
2023-05-13T12:03:34.024Z,24.57
2023-05-13T12:05:38.991Z,24.41
2023-05-13T12:07:44.789Z,24.77
2023-05-13T12:09:49.646Z,25.08
2023-05-13T12:11:55.652Z,25.24
2023-05-13T12:14:03.702Z,25.20
2023-05-13T12:16:09.117Z,25.27
2023-05-13T12:18:15.636Z,25.59
2023-05-13T12:20:22.283Z,25.59
2023-05-13T12:22:27.324Z,25.22
2023-05-13T12:24:37.068Z,25.89
2023-05-13T12:26:41.989Z,25.98
2023-05-13T12:28:47.538Z,26.13
2023-05-13T12:30:57.104Z,26.05
2023-05-13T12:33:02.154Z,26.22
2023-05-13T12:35:16.058Z,25.89
2023-05-13T12:37:27.529Z,25.06
2023-05-13T12:39:32.677Z,25.65
2023-05-13T12:41:39.178Z,25.95
2023-05-13T12:43:45.280Z,25.13
2023-05-13T12:45:55.183Z,24.68
2023-05-13T12:48:03.654Z,24.74
2023-05-13T12:50:10.542Z,25.46
2023-05-13T12:52:19.134Z,25.87
2023-05-13T12:54:25.966Z,25.88
2023-05-13T12:56:31.253Z,24.59
2023-05-13T12:58:36.013Z,24.09
2023-05-13T13:00:41.786Z,24.49
2023-05-13T13:02:49.075Z,24.91
2023-05-13T13:04:56.746Z,25.59
2023-05-13T13:07:01.708Z,24.39
2023-05-13T13:09:07.796Z,23.90
2023-05-13T13:11:15.104Z,23.54
2023-05-13T13:13:20.017Z,23.63
2023-05-13T13:15:25.470Z,23.07
2023-05-13T13:17:30.770Z,23.17
2023-05-13T13:19:35.692Z,24.03
2023-05-13T13:21:43.265Z,23.34
2023-05-13T13:23:48.255Z,23.00
2023-05-13T13:25:53.143Z,23.15
2023-05-13T13:27:58.112Z,22.72
2023-05-13T13:30:03.125Z,22.92
2023-05-13T13:32:09.099Z,22.84
2023-05-13T13:34:14.733Z,22.93
2023-05-13T13:36:25.706Z,22.86
2023-05-13T13:38:33.190Z,22.67
2023-05-13T13:40:38.811Z,22.96
2023-05-13T13:42:45.259Z,22.05
2023-05-13T13:44:50.206Z,21.77
2023-05-13T13:46:55.419Z,21.70
2023-05-13T13:49:02.138Z,21.90
2023-05-13T13:51:09.025Z,22.02
2023-05-13T13:53:14.936Z,22.60
2023-05-13T13:55:22.816Z,21.82
2023-05-13T13:57:27.837Z,21.93
2023-05-13T13:59:33.108Z,22.00
2023-05-13T14:01:40.289Z,22.21
2023-05-13T14:03:45.451Z,21.96
2023-05-13T14:05:50.355Z,22.42
2023-05-13T14:07:56.142Z,22.41
2023-05-13T14:10:01.613Z,22.61
2023-05-13T14:12:09.655Z,22.41
2023-05-13T14:14:15.480Z,22.34
2023-05-13T14:16:20.347Z,22.54
2023-05-13T14:18:25.892Z,22.43
2023-05-13T14:20:31.552Z,22.43
2023-05-13T14:22:36.631Z,21.65
2023-05-13T14:26:47.041Z,21.95
2023-05-13T14:28:55.196Z,22.02
2023-05-13T14:31:00.246Z,21.66
2023-05-13T14:33:05.426Z,21.86
2023-05-13T14:35:12.150Z,22.01
2023-05-13T14:37:17.578Z,21.33
2023-05-13T14:39:22.620Z,21.66
2023-05-13T14:41:29.462Z,21.66
2023-05-13T14:43:34.503Z,21.70
2023-05-13T14:45:42.140Z,21.85
2023-05-13T14:47:47.566Z,21.66
2023-05-13T14:49:52.666Z,21.11
2023-05-13T14:51:57.608Z,21.59
2023-05-13T14:54:02.555Z,21.78
2023-05-13T14:56:08.194Z,21.02
2023-05-13T14:58:14.186Z,21.27
2023-05-13T15:00:20.284Z,21.41
2023-05-13T15:02:28.654Z,21.35
2023-05-13T15:04:33.743Z,20.98
2023-05-13T15:06:40.384Z,21.21
2023-05-13T15:08:45.426Z,21.20
2023-05-13T15:10:50.469Z,21.11
2023-05-13T15:12:55.289Z,20.87
2023-05-13T15:15:02.609Z,21.13
2023-05-13T15:17:12.176Z,21.45
2023-05-13T15:19:19.707Z,21.18
2023-05-13T15:21:24.949Z,20.98
2023-05-13T15:23:30.111Z,21.10
2023-05-13T15:25:35.153Z,21.02
2023-05-13T15:27:40.046Z,20.92
2023-05-13T15:29:45.506Z,20.72
2023-05-13T15:31:52.991Z,20.38
2023-05-13T15:33:58.509Z,20.27
2023-05-13T15:36:06.105Z,20.39
2023-05-13T15:38:11.210Z,20.30
2023-05-13T15:40:20.088Z,20.32
2023-05-13T15:42:25.297Z,20.29
2023-05-13T15:44:30.304Z,20.34
2023-05-13T15:46:36.064Z,20.47
2023-05-13T15:48:44.141Z,20.43
2023-05-13T15:50:49.147Z,20.53
2023-05-13T15:52:57.486Z,20.36
2023-05-13T15:55:02.447Z,20.10
2023-05-13T15:57:07.720Z,20.40
2023-05-13T15:59:12.666Z,20.65
2023-05-13T16:01:19.003Z,20.48
2023-05-13T16:03:23.919Z,20.63
2023-05-13T16:05:31.771Z,20.43
2023-05-13T16:07:36.814Z,20.29
2023-05-13T16:09:45.369Z,20.38
2023-05-13T16:11:50.433Z,20.42
2023-05-13T16:13:55.359Z,20.16
2023-05-13T16:16:00.298Z,20.23
2023-05-13T16:18:05.187Z,20.42
2023-05-13T16:20:11.945Z,20.50
2023-05-13T16:22:33.868Z,20.36
2023-05-13T16:24:38.893Z,19.95
2023-05-13T16:26:46.652Z,20.10
2023-05-13T16:28:53.110Z,19.98
2023-05-13T16:30:58.728Z,19.74
2023-05-13T16:33:03.901Z,19.95
2023-05-13T16:35:11.788Z,20.03
2023-05-13T16:37:16.826Z,19.47
2023-05-13T16:39:27.855Z,19.47
2023-05-13T16:41:35.615Z,19.34
2023-05-13T16:43:43.877Z,19.23
2023-05-13T16:45:48.920Z,18.83
2023-05-13T16:47:54.282Z,18.88
2023-05-13T16:50:00.482Z,18.78
2023-05-13T16:52:05.687Z,18.41
2023-05-13T16:54:10.780Z,18.51
2023-05-13T16:56:15.807Z,18.43
2023-05-13T16:58:21.233Z,18.32
2023-05-13T17:00:31.293Z,18.23
2023-05-13T17:02:38.575Z,18.28
2023-05-13T17:04:44.037Z,18.47
2023-05-13T17:06:49.222Z,18.26
2023-05-13T17:08:54.193Z,17.99
2023-05-13T17:11:02.033Z,18.10
2023-05-13T17:13:07.051Z,17.92
2023-05-13T17:15:12.616Z,17.84
2023-05-13T17:17:20.404Z,17.65
2023-05-13T17:19:26.117Z,17.61
2023-05-13T17:21:31.347Z,17.47
2023-05-13T17:23:36.803Z,17.44
2023-05-13T17:25:41.920Z,17.44
2023-05-13T17:27:46.831Z,17.43
2023-05-13T17:29:53.946Z,17.13
2023-05-13T17:31:59.310Z,17.11
2023-05-13T17:34:07.175Z,16.91
2023-05-13T17:36:12.339Z,16.93
2023-05-13T17:38:21.139Z,16.74
2023-05-13T17:40:26.932Z,16.91
2023-05-13T17:42:33.289Z,16.91
2023-05-13T17:44:38.299Z,16.78
2023-05-13T17:46:43.954Z,16.67
2023-05-13T17:48:49.400Z,16.65
2023-05-13T17:50:57.286Z,16.53
2023-05-13T17:53:03.734Z,16.41
2023-05-13T17:55:10.068Z,16.29
2023-05-13T17:57:16.056Z,16.31
2023-05-13T17:59:21.101Z,16.26
2023-05-13T18:01:25.986Z,16.23
2023-05-13T18:03:30.961Z,16.24
2023-05-13T18:05:36.277Z,16.16
2023-05-13T18:07:43.974Z,16.10
2023-05-13T18:09:49.994Z,16.00
2023-05-13T18:11:57.795Z,15.96
2023-05-13T18:14:03.041Z,15.85
2023-05-13T18:16:09.462Z,15.94
2023-05-13T18:18:16.372Z,15.79
2023-05-13T18:20:24.791Z,15.80
2023-05-13T18:22:30.081Z,15.70
2023-05-13T18:24:40.001Z,15.74
2023-05-13T18:26:45.339Z,15.64
2023-05-13T18:28:50.434Z,15.61
2023-05-13T18:30:55.488Z,15.48
2023-05-13T18:33:00.401Z,15.46
2023-05-13T18:35:05.940Z,15.36
2023-05-13T18:37:10.731Z,15.33
2023-05-13T18:39:15.866Z,15.47
2023-05-13T18:41:24.473Z,15.42
2023-05-13T18:43:30.815Z,15.44
2023-05-13T18:45:35.783Z,15.50
2023-05-13T18:47:41.243Z,15.48
2023-05-13T18:49:46.251Z,15.28
2023-05-13T18:51:51.274Z,15.22
2023-05-13T18:53:56.574Z,15.20
2023-05-13T18:56:01.594Z,15.15
2023-05-13T18:58:09.226Z,15.13
2023-05-13T19:00:15.309Z,15.16
2023-05-13T19:02:20.645Z,15.15
2023-05-13T19:04:28.914Z,15.13
2023-05-13T19:06:34.375Z,15.13
2023-05-13T19:08:43.469Z,15.14
2023-05-13T19:10:49.966Z,15.15
2023-05-13T19:12:55.426Z,15.14
2023-05-13T19:15:03.237Z,15.10
2023-05-13T19:17:08.813Z,15.12
2023-05-13T19:19:14.099Z,15.12
2023-05-13T19:21:23.448Z,15.10
2023-05-13T19:23:30.013Z,15.12
2023-05-13T19:25:35.486Z,15.11
2023-05-13T19:27:43.958Z,15.05
2023-05-13T19:29:49.320Z,14.96
2023-05-13T19:31:56.888Z,14.95
2023-05-13T19:34:02.907Z,14.85
2023-05-13T19:36:08.305Z,14.90
2023-05-13T19:38:14.373Z,14.91
2023-05-13T19:40:19.598Z,14.94
2023-05-13T19:42:26.610Z,14.87
2023-05-13T19:44:33.283Z,14.79
2023-05-13T19:46:38.258Z,14.80
2023-05-13T19:48:46.371Z,14.73
2023-05-13T19:50:53.570Z,14.76
2023-05-13T19:52:59.010Z,14.76
2023-05-13T19:55:04.642Z,14.73
2023-05-13T19:57:09.975Z,14.74
2023-05-13T19:59:15.355Z,14.74
2023-05-13T20:01:20.661Z,14.80
2023-05-13T20:03:26.755Z,14.80
2023-05-13T20:05:34.759Z,14.79
2023-05-13T20:07:40.079Z,14.76
2023-05-13T20:09:45.385Z,14.66
2023-05-13T20:11:50.235Z,14.56
2023-05-13T20:13:55.295Z,14.47
2023-05-13T20:16:00.307Z,14.52
2023-05-13T20:18:05.480Z,14.43
2023-05-13T20:20:12.008Z,14.45
2023-05-13T20:22:22.755Z,14.39
2023-05-13T20:24:27.723Z,14.31
2023-05-13T20:26:35.110Z,14.30
2023-05-13T20:28:40.119Z,14.26
2023-05-13T20:30:45.781Z,14.25
2023-05-13T20:32:51.235Z,14.24
2023-05-13T20:34:56.256Z,14.19
2023-05-13T20:37:01.753Z,14.16
2023-05-13T20:39:09.871Z,14.12
2023-05-13T20:41:15.329Z,13.92
2023-05-13T20:43:20.390Z,13.75
2023-05-13T20:45:26.741Z,13.60
2023-05-13T20:47:31.767Z,13.51
2023-05-13T20:49:38.750Z,13.50
2023-05-13T20:51:44.204Z,13.46
2023-05-13T20:53:49.526Z,13.37
2023-05-13T20:55:57.210Z,13.38
2023-05-13T20:58:02.044Z,13.43
2023-05-13T21:00:07.890Z,13.52
2023-05-13T21:02:12.911Z,13.44
2023-05-13T21:04:22.138Z,13.30
2023-05-13T21:06:30.242Z,13.14
2023-05-13T21:08:37.281Z,13.08
2023-05-13T21:10:42.050Z,13.04
2023-05-13T21:12:49.753Z,12.99
2023-05-13T21:14:54.786Z,12.95
2023-05-13T21:17:03.226Z,12.95
2023-05-13T21:19:08.415Z,12.94
2023-05-13T21:21:13.791Z,12.87
2023-05-13T21:23:20.536Z,12.87
2023-05-13T21:25:29.358Z,12.91
2023-05-13T21:27:34.697Z,12.86
2023-05-13T21:29:42.504Z,12.83
2023-05-13T21:31:50.616Z,12.86
2023-05-13T21:33:56.170Z,12.76
2023-05-13T21:36:01.264Z,12.76
2023-05-13T21:38:12.030Z,12.66
2023-05-13T21:40:21.601Z,12.64
2023-05-13T21:42:27.295Z,12.64
2023-05-13T21:44:32.209Z,12.67
2023-05-13T21:46:39.753Z,12.64
2023-05-13T21:48:47.027Z,12.65
2023-05-13T21:50:54.846Z,12.65
2023-05-13T21:52:59.892Z,12.63
2023-05-13T21:55:05.047Z,12.60
2023-05-13T21:57:11.367Z,12.54
2023-05-13T21:59:16.399Z,12.47
2023-05-13T22:01:23.175Z,12.53
2023-05-13T22:03:31.418Z,12.46
2023-05-13T22:05:42.382Z,12.45
2023-05-13T22:07:51.298Z,12.46
2023-05-13T22:09:56.360Z,12.43
2023-05-13T22:12:01.337Z,12.44
2023-05-13T22:14:06.413Z,12.46
2023-05-13T22:16:12.222Z,12.44
2023-05-13T22:18:20.153Z,12.45
2023-05-13T22:20:28.673Z,12.36
2023-05-13T22:22:33.755Z,12.36
2023-05-13T22:24:38.522Z,12.38
2023-05-13T22:26:44.351Z,12.34
2023-05-13T22:28:49.413Z,12.34
2023-05-13T22:30:56.068Z,12.37
2023-05-13T22:33:01.092Z,12.38
2023-05-13T22:35:06.330Z,12.43
2023-05-13T22:37:14.222Z,12.38
2023-05-13T22:39:19.482Z,12.33
2023-05-13T22:41:26.562Z,12.27
2023-05-13T22:43:31.598Z,12.23
2023-05-13T22:45:36.837Z,12.22
2023-05-13T22:47:42.023Z,12.23
2023-05-13T22:49:47.023Z,12.19
2023-05-13T22:51:52.383Z,12.21
2023-05-13T22:53:59.913Z,12.20
2023-05-13T22:56:05.890Z,12.16
2023-05-13T22:58:11.004Z,12.16
2023-05-13T23:00:17.612Z,12.13
2023-05-13T23:02:23.828Z,12.10
2023-05-13T23:04:30.231Z,12.11
2023-05-13T23:06:35.332Z,12.04
2023-05-13T23:08:42.770Z,12.10
2023-05-13T23:10:50.524Z,12.09
2023-05-13T23:12:55.983Z,12.10
2023-05-13T23:15:01.245Z,12.06
2023-05-13T23:17:06.317Z,12.07
2023-05-13T23:19:11.624Z,12.15
2023-05-13T23:21:16.901Z,12.08
2023-05-13T23:23:25.226Z,12.13
2023-05-13T23:25:30.251Z,12.07
2023-05-13T23:27:38.051Z,12.01
2023-05-13T23:29:43.095Z,12.02
2023-05-13T23:31:49.381Z,12.09
2023-05-13T23:33:57.339Z,12.08
2023-05-13T23:36:02.358Z,11.98
2023-05-13T23:38:07.310Z,12.10
2023-05-13T23:40:13.961Z,11.95
2023-05-13T23:42:19.603Z,11.93
2023-05-13T23:44:27.110Z,11.93
2023-05-13T23:46:32.327Z,11.96
2023-05-13T23:48:40.637Z,11.94
2023-05-13T23:50:45.680Z,11.87
2023-05-13T23:52:51.503Z,11.84
2023-05-13T23:54:56.696Z,11.77
2023-05-13T23:57:01.600Z,11.78
2023-05-13T23:59:06.664Z,11.81
